Time;durP1;ratioP1;P1;durP2;ratioP2;P2;SDS_P1;SDS_P2;PMS_P1;PMS_P2;Temp;Humidity;BMP_temperature;BMP_pressure;BME280_temperature;BME280_humidity;BME280_pressure;Samples;Min_cycle;Max_cycle;Signal;HPM_P1;HPM_P2
2021/05/18 00:00:57;;;;;;;11.37;7.40;;;9.90;99.90;;;;;;5029144;28;20466;-76
2021/05/18 00:03:25;;;;;;;11.80;7.87;;;9.90;99.90;;;;;;5031679;28;20438;-76
2021/05/18 00:05:57;;;;;;;13.53;7.07;;;9.90;99.90;;;;;;5030134;28;20485;-76
2021/05/18 00:08:24;;;;;;;10.10;8.10;;;10.00;99.90;;;;;;5030524;28;20494;-76
2021/05/18 00:13:44;;;;;;;8.37;6.73;;;10.00;99.90;;;;;;5030199;28;20475;-76
2021/05/18 00:16:11;;;;;;;12.30;7.27;;;10.00;99.90;;;;;;4994507;28;20470;-76
2021/05/18 00:18:41;;;;;;;8.63;6.57;;;10.00;99.90;;;;;;5021657;28;20467;-76
2021/05/18 00:21:07;;;;;;;13.20;7.67;;;10.00;99.90;;;;;;5029429;28;20458;-76
2021/05/18 00:23:35;;;;;;;13.03;7.20;;;10.00;99.90;;;;;;5031656;28;20467;-76
2021/05/18 00:26:02;;;;;;;10.10;7.27;;;10.00;99.90;;;;;;5030329;28;20885;-76
2021/05/18 00:28:31;;;;;;;14.63;7.30;;;10.10;99.90;;;;;;4997841;28;20956;-76
2021/05/18 00:30:57;;;;;;;9.97;7.40;;;10.10;99.90;;;;;;5030093;28;21013;-76
2021/05/18 00:33:29;;;;;;;9.87;7.40;;;10.10;99.90;;;;;;5030014;28;20463;-76
2021/05/18 00:36:01;;;;;;;9.73;7.10;;;10.20;99.90;;;;;;5029943;28;20525;-75
2021/05/18 00:38:30;;;;;;;9.03;7.10;;;10.20;99.90;;;;;;5013943;28;20411;-76
2021/05/18 00:41:08;;;;;;;12.83;7.43;;;10.20;99.90;;;;;;5030244;28;20974;-76
2021/05/18 00:43:36;;;;;;;10.30;6.83;;;10.30;99.90;;;;;;5031329;28;20955;-76
2021/05/18 00:46:03;;;;;;;10.30;7.50;;;10.30;99.90;;;;;;5031461;28;20419;-76
2021/05/18 00:48:32;;;;;;;14.80;9.10;;;10.30;99.90;;;;;;5030731;28;20438;-76
2021/05/18 00:51:08;;;;;;;15.67;8.50;;;10.40;99.90;;;;;;5032618;28;20459;-76
2021/05/18 00:53:39;;;;;;;10.97;9.80;;;10.30;99.90;;;;;;5033328;28;20466;-76
2021/05/18 00:59:01;;;;;;;13.97;8.90;;;10.40;99.90;;;;;;5030189;28;20404;-76
2021/05/18 01:01:29;;;;;;;13.50;10.40;;;10.50;99.90;;;;;;5015118;28;20430;-76
2021/05/18 01:03:55;;;;;;;13.43;8.40;;;10.50;99.90;;;;;;5034537;28;20469;-76
2021/05/18 01:08:55;;;;;;;14.30;9.63;;;10.60;99.90;;;;;;5034550;28;20431;-76
2021/05/18 01:11:31;;;;;;;13.07;9.80;;;10.70;99.90;;;;;;5033664;28;20974;-76
2021/05/18 01:14:04;;;;;;;15.90;10.23;;;10.60;99.90;;;;;;5016628;28;21103;-76
2021/05/18 01:16:36;;;;;;;17.50;10.10;;;10.70;99.90;;;;;;5033622;28;20408;-76
2021/05/18 01:19:04;;;;;;;17.57;10.10;;;10.70;99.90;;;;;;5033992;28;20471;-76
2021/05/18 01:21:32;;;;;;;14.20;9.30;;;10.70;99.90;;;;;;5016662;28;20447;-76
2021/05/18 01:23:59;;;;;;;14.63;9.00;;;10.70;99.90;;;;;;5016196;28;20426;-76
2021/05/18 01:26:28;;;;;;;14.80;10.10;;;10.70;99.90;;;;;;5033393;28;20446;-76
2021/05/18 01:28:54;;;;;;;14.77;10.27;;;10.80;99.90;;;;;;5014412;28;20507;-76
2021/05/18 01:31:23;;;;;;;18.10;11.50;;;10.80;99.90;;;;;;5010605;28;20424;-76
2021/05/18 01:33:53;;;;;;;22.13;13.17;;;10.80;99.90;;;;;;5034019;28;20501;-75
2021/05/18 01:36:24;;;;;;;20.20;13.00;;;10.90;99.90;;;;;;5016078;28;20411;-75
2021/05/18 01:38:58;;;;;;;19.70;13.50;;;10.90;99.90;;;;;;4999818;28;20485;-76
2021/05/18 01:44:11;;;;;;;24.77;17.13;;;10.80;99.90;;;;;;5016041;28;20499;-75
2021/05/18 01:46:41;;;;;;;24.77;17.03;;;10.70;99.90;;;;;;5016539;28;20738;-75
2021/05/18 01:49:11;;;;;;;23.20;16.83;;;10.70;99.90;;;;;;5031566;28;20794;-75
2021/05/18 01:51:53;;;;;;;23.43;17.50;;;10.70;99.90;;;;;;5001074;28;20888;-75
2021/05/18 01:54:24;;;;;;;26.00;17.83;;;10.70;99.90;;;;;;5000036;28;20497;-75
2021/05/18 01:56:54;;;;;;;24.63;17.97;;;10.70;99.90;;;;;;5015977;28;20909;-75
2021/05/18 01:59:25;;;;;;;23.70;17.37;;;10.70;99.90;;;;;;4999869;28;20432;-75
2021/05/18 02:01:56;;;;;;;22.93;18.87;;;10.70;99.90;;;;;;4998901;28;20446;-75
2021/05/18 02:04:40;;;;;;;25.87;17.63;;;10.70;99.90;;;;;;5015998;28;20438;-76
2021/05/18 02:07:35;;;;;;;29.83;20.50;;;10.80;99.90;;;;;;4999425;28;20482;-75
2021/05/18 02:10:06;;;;;;;23.83;17.60;;;10.90;99.90;;;;;;5013853;28;20448;-76
2021/05/18 02:12:33;;;;;;;27.90;18.60;;;10.90;99.90;;;;;;5015616;28;20448;-76
2021/05/18 02:15:14;;;;;;;27.90;18.80;;;10.90;99.90;;;;;;5015645;28;20808;-75
2021/05/18 02:17:54;;;;;;;27.83;19.57;;;11.00;99.90;;;;;;5015307;28;20432;-75
2021/05/18 02:20:49;;;;;;;24.60;18.17;;;11.00;99.90;;;;;;5014122;28;20483;-75
2021/05/18 02:26:10;;;;;;;28.10;21.30;;;11.00;99.90;;;;;;5031877;28;20436;-75
2021/05/18 02:28:42;;;;;;;25.63;19.77;;;11.00;99.90;;;;;;5015446;28;20438;-75
2021/05/18 02:31:12;;;;;;;23.63;18.90;;;11.10;99.90;;;;;;5031995;28;20432;-75
2021/05/18 02:33:47;;;;;;;27.90;20.30;;;11.10;99.90;;;;;;5032921;28;20458;-75
2021/05/18 02:36:15;;;;;;;29.80;20.50;;;11.10;99.90;;;;;;5031898;28;20442;-75
2021/05/18 02:38:42;;;;;;;28.57;20.07;;;11.10;99.90;;;;;;5031390;28;20459;-75
2021/05/18 02:41:15;;;;;;;25.90;19.70;;;11.10;99.90;;;;;;5032756;28;20448;-75
2021/05/18 02:43:55;;;;;;;27.63;19.90;;;11.10;99.90;;;;;;5031244;28;20841;-76
2021/05/18 02:49:31;;;;;;;27.57;18.37;;;11.10;99.90;;;;;;5031406;28;20798;-76
2021/05/18 02:51:51;;;;;;;30.90;21.03;;;11.10;99.90;;;;;;5031707;28;20794;-74
2021/05/18 02:54:24;;;;;;;26.47;18.80;;;11.20;99.90;;;;;;4998884;28;20444;-74
2021/05/18 02:59:19;;;;;;;25.33;18.33;;;11.10;99.90;;;;;;5017681;28;20463;-75
2021/05/18 03:01:51;;;;;;;30.10;20.60;;;11.00;99.90;;;;;;5033195;28;20917;-74
2021/05/18 03:04:21;;;;;;;27.50;19.57;;;11.00;99.90;;;;;;5031045;28;20436;-74
2021/05/18 03:06:49;;;;;;;25.80;19.20;;;11.00;99.90;;;;;;5031998;28;20419;-75
2021/05/18 03:09:21;;;;;;;26.67;19.27;;;11.00;99.90;;;;;;5032801;28;20454;-75
2021/05/18 03:11:52;;;;;;;23.20;19.50;;;11.00;99.90;;;;;;5014852;28;20502;-75
2021/05/18 03:14:19;;;;;;;27.43;18.83;;;11.00;99.90;;;;;;4998524;28;20427;-77
2021/05/18 03:16:47;;;;;;;23.03;17.07;;;11.10;99.90;;;;;;5013342;28;20753;-74
2021/05/18 03:19:16;;;;;;;24.03;16.13;;;11.10;99.90;;;;;;5031271;28;20470;-74
2021/05/18 03:21:44;;;;;;;21.30;16.37;;;11.10;99.90;;;;;;5032211;28;20427;-75
2021/05/18 03:24:11;;;;;;;20.73;15.57;;;11.10;99.90;;;;;;5015119;28;20434;-75
2021/05/18 03:26:47;;;;;;;22.90;16.40;;;11.10;99.90;;;;;;5032925;28;20431;-75
2021/05/18 03:29:34;;;;;;;21.67;14.47;;;11.10;99.90;;;;;;5031478;28;20443;-75
2021/05/18 03:34:45;;;;;;;20.10;12.57;;;11.00;99.90;;;;;;5032396;28;20432;-75
2021/05/18 03:40:06;;;;;;;14.00;11.60;;;11.00;99.90;;;;;;5031467;28;20792;-77
2021/05/18 03:42:36;;;;;;;14.50;11.30;;;11.00;99.90;;;;;;4995420;28;20421;-75
2021/05/18 03:53:34;;;;;;;12.50;8.40;;;10.90;99.90;;;;;;5030900;28;20467;-75
2021/05/18 04:04:16;;;;;;;14.97;8.90;;;10.70;99.90;;;;;;5030985;28;20423;-74
2021/05/18 04:13:05;;;;;;;16.10;9.73;;;10.70;99.90;;;;;;5030238;28;20471;-74
2021/05/18 04:20:51;;;;;;;15.10;9.77;;;10.80;99.90;;;;;;5031330;28;20472;-75
2021/05/18 04:53:09;;;;;;;17.17;9.23;;;10.90;99.90;;;;;;4981743;28;20480;-75
2021/05/18 05:01:16;;;;;;;17.60;10.20;;;10.90;99.90;;;;;;5000975;28;20451;-75
2021/05/18 05:06:34;;;;;;;15.60;10.20;;;10.90;99.90;;;;;;5025780;28;20991;-75
2021/05/18 05:14:22;;;;;;;18.80;11.17;;;11.00;99.90;;;;;;5035025;28;21011;-75
2021/05/18 05:16:48;;;;;;;17.90;11.10;;;11.10;99.90;;;;;;5035013;28;20428;-75
2021/05/18 05:19:14;;;;;;;15.13;11.17;;;11.20;99.90;;;;;;5034634;28;20833;-76
2021/05/18 05:21:41;;;;;;;14.33;10.93;;;11.20;99.90;;;;;;5016749;28;20530;-75
2021/05/18 05:24:08;;;;;;;16.73;11.13;;;11.20;99.90;;;;;;5017200;28;20416;-75
2021/05/18 05:26:39;;;;;;;14.67;9.90;;;11.20;99.90;;;;;;5017195;28;21010;-75
2021/05/18 05:29:07;;;;;;;16.27;11.37;;;11.20;99.90;;;;;;5017258;28;21121;-75
2021/05/18 05:31:34;;;;;;;20.67;12.07;;;11.10;99.90;;;;;;5004974;28;20439;-75
2021/05/18 05:34:00;;;;;;;15.93;12.30;;;11.10;99.90;;;;;;4997376;28;20492;-75
2021/05/18 05:36:28;;;;;;;20.13;12.90;;;11.20;99.90;;;;;;4983381;28;20798;-75
2021/05/18 05:39:01;;;;;;;17.70;12.40;;;11.20;99.90;;;;;;5017243;28;21004;-75
2021/05/18 05:41:27;;;;;;;24.57;13.23;;;11.20;99.90;;;;;;4984440;28;20441;-75
2021/05/18 05:43:53;;;;;;;21.43;12.80;;;11.10;99.90;;;;;;5034716;28;20788;-75
2021/05/18 05:46:20;;;;;;;19.23;12.97;;;11.20;99.90;;;;;;5013025;28;20443;-75
2021/05/18 05:48:54;;;;;;;23.20;14.30;;;11.20;99.90;;;;;;5016657;28;20952;-76
2021/05/18 05:51:22;;;;;;;23.20;14.00;;;11.20;99.90;;;;;;5000675;28;20426;-75
2021/05/18 05:53:48;;;;;;;24.60;14.07;;;11.20;99.90;;;;;;5033924;28;20513;-76
2021/05/18 05:56:16;;;;;;;21.00;13.20;;;11.20;99.90;;;;;;5016725;28;20506;-75
2021/05/18 05:58:43;;;;;;;20.83;13.27;;;11.20;99.90;;;;;;5034168;28;20428;-75
2021/05/18 06:01:12;;;;;;;22.93;14.30;;;11.10;99.90;;;;;;5016367;28;20440;-75
2021/05/18 06:03:39;;;;;;;19.63;13.03;;;11.20;99.90;;;;;;5000110;28;20428;-76
2021/05/18 06:06:07;;;;;;;22.83;14.57;;;11.20;99.90;;;;;;4999916;28;20503;-75
2021/05/18 06:08:52;;;;;;;21.90;14.87;;;11.20;99.90;;;;;;5033655;28;20447;-75
2021/05/18 06:14:04;;;;;;;23.03;14.70;;;11.30;99.90;;;;;;5016034;28;20451;-75
2021/05/18 06:46:54;;;;;;;23.13;14.73;;;11.70;99.90;;;;;;5032588;28;20423;-77
2021/05/18 06:49:24;;;;;;;22.20;14.53;;;11.70;99.90;;;;;;5020504;28;21369;-77
2021/05/18 06:51:50;;;;;;;29.93;16.10;;;11.70;99.90;;;;;;5031651;28;20443;-76
2021/05/18 06:54:16;;;;;;;23.33;15.73;;;11.70;99.90;;;;;;5031214;28;20843;-77
2021/05/18 06:56:45;;;;;;;30.53;16.87;;;11.70;99.90;;;;;;5031297;28;20459;-77
2021/05/18 07:01:44;;;;;;;25.00;16.07;;;11.80;99.90;;;;;;5030946;28;21180;-76
2021/05/18 07:04:14;;;;;;;24.80;16.37;;;11.80;99.90;;;;;;5008936;28;20926;-77
2021/05/18 07:09:12;;;;;;;27.13;18.10;;;11.80;99.90;;;;;;5032778;28;20811;-77
2021/05/18 07:11:38;;;;;;;32.57;17.47;;;11.80;99.90;;;;;;5005743;28;20817;-78
2021/05/18 07:14:05;;;;;;;25.37;18.70;;;11.90;99.90;;;;;;5029103;28;20470;-77
2021/05/18 07:16:35;;;;;;;26.67;16.50;;;12.00;99.90;;;;;;5029796;28;20446;-76
2021/05/18 07:19:02;;;;;;;22.40;16.87;;;12.10;99.90;;;;;;5016214;28;20533;-76
2021/05/18 07:21:28;;;;;;;31.17;17.90;;;12.20;99.90;;;;;;5022324;28;20419;-77
2021/05/18 07:23:55;;;;;;;26.07;17.47;;;12.30;99.90;;;;;;5028227;28;20472;-76
2021/05/18 07:26:21;;;;;;;29.33;18.50;;;12.30;99.90;;;;;;5029128;28;20415;-76
2021/05/18 07:28:47;;;;;;;28.63;19.73;;;12.40;99.90;;;;;;5027407;28;20423;-76
2021/05/18 07:31:14;;;;;;;30.13;18.90;;;12.40;99.90;;;;;;5009067;28;20463;-76
2021/05/18 07:33:40;;;;;;;31.17;18.13;;;12.50;99.90;;;;;;5022234;28;21179;-76
2021/05/18 07:36:09;;;;;;;30.10;18.37;;;12.60;99.90;;;;;;5030649;28;20440;-76
2021/05/18 07:38:41;;;;;;;29.77;19.40;;;12.70;99.90;;;;;;5031174;28;20424;-76
2021/05/18 07:41:08;;;;;;;24.80;17.57;;;12.80;99.90;;;;;;5030186;28;20467;-77
2021/05/18 07:43:35;;;;;;;24.83;17.90;;;13.00;99.90;;;;;;5032152;28;20473;-76
2021/05/18 07:46:12;;;;;;;19.87;16.83;;;13.20;99.90;;;;;;5031632;28;20488;-76
2021/05/18 07:49:09;;;;;;;26.97;17.27;;;13.20;99.90;;;;;;5032303;28;21314;-76
2021/05/18 07:59:52;;;;;;;25.73;18.03;;;13.10;99.90;;;;;;5027393;28;20452;-76
2021/05/18 08:07:38;;;;;;;19.70;16.03;;;13.20;99.90;;;;;;5036113;28;20794;-76
2021/05/18 08:12:45;;;;;;;19.90;16.80;;;13.20;99.90;;;;;;5034490;28;20470;-77
2021/05/18 08:46:43;;;;;;;23.83;16.90;;;13.20;99.90;;;;;;5034318;28;20435;-77
2021/05/18 10:34:28;;;;;;;10.70;9.70;;;17.00;99.90;;;;;;5037305;28;20815;-76
2021/05/18 10:36:54;;;;;;;10.23;9.27;;;17.20;99.90;;;;;;5015501;28;20447;-79
2021/05/18 10:39:27;;;;;;;11.50;10.43;;;17.20;99.90;;;;;;5033066;28;20453;-80
2021/05/18 10:42:09;;;;;;;11.80;10.27;;;17.20;98.70;;;;;;5018040;28;20445;-79
2021/05/18 10:44:56;;;;;;;11.20;10.30;;;17.30;99.90;;;;;;5012503;28;20945;-76
2021/05/18 10:47:45;;;;;;;11.70;10.70;;;17.80;99.90;;;;;;5017561;28;20432;-78
2021/05/18 10:50:12;;;;;;;11.43;10.50;;;18.00;99.00;;;;;;5032223;22;20478;-86
2021/05/18 10:52:41;;;;;;;11.90;11.00;;;18.20;98.60;;;;;;5030737;28;20468;-86
2021/05/18 10:55:15;;;;;;;12.40;11.50;;;18.30;97.80;;;;;;5032489;28;20443;-85
2021/05/18 10:57:40;;;;;;;12.97;11.90;;;18.30;96.40;;;;;;5033207;28;20530;-84
2021/05/18 11:00:08;;;;;;;12.63;11.63;;;18.00;95.70;;;;;;5032918;28;20432;-83
2021/05/18 11:02:38;;;;;;;16.47;11.10;;;17.60;95.60;;;;;;5015674;28;20427;-84
2021/05/18 11:05:14;;;;;;;14.40;13.00;;;17.30;96.60;;;;;;5015730;28;20415;-86
2021/05/18 11:07:44;;;;;;;11.90;10.70;;;17.00;99.90;;;;;;5033133;28;20443;-88
2021/05/18 11:10:19;;;;;;;12.13;10.93;;;16.90;99.90;;;;;;5033443;28;20446;-93
2021/05/18 11:12:51;;;;;;;12.73;11.57;;;16.70;99.90;;;;;;5026481;28;20789;-86
2021/05/18 11:15:19;;;;;;;11.70;10.57;;;16.50;99.90;;;;;;5033477;28;20764;-88
2021/05/18 11:17:53;;;;;;;14.23;11.03;;;16.40;99.90;;;;;;4997530;28;20961;-85
2021/05/18 11:23:31;;;;;;;12.33;10.93;;;16.30;99.90;;;;;;5015402;28;20802;-83
2021/05/18 11:26:03;;;;;;;12.90;11.40;;;16.50;99.90;;;;;;5015245;28;20438;-83
2021/05/18 11:28:29;;;;;;;12.27;11.07;;;16.70;99.90;;;;;;5016800;28;20431;-90
2021/05/18 11:31:09;;;;;;;12.50;11.20;;;16.70;99.90;;;;;;4998342;28;20481;-84
2021/05/18 11:33:41;;;;;;;12.47;11.37;;;16.80;99.90;;;;;;5032217;28;20478;-87
2021/05/18 11:36:09;;;;;;;13.30;12.03;;;16.90;99.90;;;;;;5014961;28;20426;-90
2021/05/18 11:39:01;;;;;;;13.07;11.40;;;16.90;99.90;;;;;;5035050;28;20440;-92
2021/05/18 11:41:34;;;;;;;13.53;12.13;;;17.00;99.90;;;;;;5033322;28;20504;-86
2021/05/18 11:44:04;;;;;;;13.50;12.10;;;17.40;99.90;;;;;;5016611;28;20903;-89
2021/05/18 11:46:32;;;;;;;13.60;12.30;;;18.00;99.90;;;;;;5016785;28;20783;-93
2021/05/18 11:49:00;;;;;;;13.63;12.23;;;18.30;99.90;;;;;;5034235;28;20976;-90
2021/05/18 11:51:32;;;;;;;15.40;13.83;;;18.40;99.90;;;;;;5032830;28;20476;-88
2021/05/18 11:54:05;;;;;;;14.73;13.30;;;18.50;98.00;;;;;;5016629;28;20474;-88
2021/05/18 11:56:36;;;;;;;14.40;13.20;;;18.60;99.30;;;;;;4992231;28;20455;-93
2021/05/18 11:59:12;;;;;;;14.47;13.10;;;19.10;98.80;;;;;;5026694;28;20517;-84
2021/05/18 12:01:49;;;;;;;14.93;13.40;;;19.50;98.00;;;;;;5013840;28;20557;-90
2021/05/18 12:04:26;;;;;;;14.77;13.27;;;19.60;96.50;;;;;;5034390;28;20449;-93
2021/05/18 12:07:04;;;;;;;15.80;14.40;;;19.90;95.10;;;;;;5001037;28;20478;-89
2021/05/18 12:09:34;;;;;;;15.10;13.60;;;19.80;95.70;;;;;;5032840;28;20538;-84
2021/05/18 12:12:03;;;;;;;14.30;12.90;;;19.40;92.70;;;;;;5026510;28;20567;-85
2021/05/18 12:14:32;;;;;;;14.40;13.10;;;19.10;95.30;;;;;;5034412;28;20462;-88
2021/05/18 12:16:59;;;;;;;15.70;13.77;;;18.70;96.30;;;;;;4994554;28;20422;-85
2021/05/18 12:19:27;;;;;;;14.10;11.37;;;18.10;98.50;;;;;;5032710;28;20435;-81
2021/05/18 12:21:55;;;;;;;10.40;9.40;;;17.50;96.50;;;;;;5014918;28;20825;-80
2021/05/18 12:24:28;;;;;;;11.27;10.17;;;16.80;99.90;;;;;;4996376;28;20433;-88
2021/05/18 12:27:03;;;;;;;65.13;46.97;;;15.90;99.90;;;;;;5015870;28;20461;-85
2021/05/18 12:29:43;;;;;;;12.70;11.43;;;14.50;99.90;;;;;;4992164;28;20456;-86
2021/05/18 12:32:18;;;;;;;8.70;7.67;;;13.60;99.90;;;;;;5024011;28;20540;-88
2021/05/18 12:34:48;;;;;;;23.93;18.27;;;12.90;99.90;;;;;;5013284;28;20499;-87
2021/05/18 12:37:18;;;;;;;15.80;12.93;;;12.40;99.90;;;;;;5038450;28;20426;-91
2021/05/18 12:39:46;;;;;;;9.77;8.20;;;12.30;99.90;;;;;;5027572;28;20452;-90
2021/05/18 12:42:15;;;;;;;11.30;7.13;;;12.20;99.90;;;;;;5028509;28;20423;-89
2021/05/18 12:45:05;;;;;;;7.97;7.17;;;12.20;99.90;;;;;;5052899;28;20440;-87
2021/05/18 12:47:39;;;;;;;9.30;6.70;;;12.20;99.90;;;;;;5031264;28;20525;-89
2021/05/18 12:50:12;;;;;;;8.90;6.83;;;12.40;99.90;;;;;;5045924;28;20458;-87
2021/05/18 12:52:42;;;;;;;10.83;7.20;;;12.50;99.90;;;;;;5003990;28;20469;-88
2021/05/18 12:55:26;;;;;;;10.30;8.00;;;12.80;99.90;;;;;;5023857;28;20436;-90
2021/05/18 12:58:04;;;;;;;11.97;7.70;;;13.50;99.90;;;;;;5038313;28;20751;-90
2021/05/18 13:00:44;;;;;;;8.00;7.20;;;14.10;99.90;;;;;;5023549;28;20967;-90
2021/05/18 13:03:18;;;;;;;6.90;6.20;;;14.90;99.90;;;;;;5036215;28;20540;-85
2021/05/18 13:05:55;;;;;;;7.63;6.27;;;15.20;99.90;;;;;;5020819;28;20429;-90
2021/05/18 13:08:31;;;;;;;8.40;6.93;;;15.60;99.90;;;;;;5020758;28;20911;-87
2021/05/18 13:13:53;;;;;;;7.87;7.17;;;16.30;99.90;;;;;;5031069;28;20501;-88
2021/05/18 13:16:25;;;;;;;13.93;8.00;;;16.60;99.90;;;;;;5038841;28;20451;-89
2021/05/18 13:19:13;;;;;;;9.73;8.83;;;16.90;99.90;;;;;;5021911;28;20433;-94
2021/05/18 13:21:53;;;;;;;9.87;8.97;;;17.20;99.90;;;;;;5035331;28;20529;-83
2021/05/18 13:27:07;;;;;;;10.10;9.20;;;17.70;99.90;;;;;;5036333;28;20477;-90
2021/05/18 13:29:35;;;;;;;10.20;9.33;;;18.20;99.90;;;;;;5030205;28;20519;-82
2021/05/18 13:32:04;;;;;;;11.30;10.30;;;18.40;99.90;;;;;;5035904;28;20456;-85
2021/05/18 13:34:33;;;;;;;11.20;10.33;;;18.70;99.90;;;;;;5010972;28;20859;-87
2021/05/18 13:37:01;;;;;;;11.40;10.40;;;18.70;99.90;;;;;;5016846;28;20805;-87
2021/05/18 13:39:27;;;;;;;12.80;11.43;;;19.00;99.90;;;;;;5035651;28;20446;-86
2021/05/18 13:41:55;;;;;;;11.80;10.80;;;19.40;99.90;;;;;;5011396;28;20757;-86
2021/05/18 13:44:22;;;;;;;11.33;10.43;;;19.30;99.90;;;;;;5032801;28;20788;-87
2021/05/18 13:46:48;;;;;;;10.47;9.67;;;19.30;99.90;;;;;;5029740;28;20461;-87
2021/05/18 13:49:17;;;;;;;10.10;9.40;;;19.40;99.90;;;;;;5034901;28;20446;-89
2021/05/18 13:51:44;;;;;;;11.70;10.60;;;19.60;96.40;;;;;;5034751;28;20470;-84
2021/05/18 13:54:41;;;;;;;12.17;11.07;;;19.60;98.30;;;;;;5017321;28;20483;-85
2021/05/18 13:57:08;;;;;;;10.00;8.97;;;19.70;95.10;;;;;;5034133;28;20435;-86
2021/05/18 13:59:34;;;;;;;10.03;9.33;;;19.70;98.00;;;;;;5034409;28;20434;-88
2021/05/18 14:02:02;;;;;;;9.77;9.00;;;19.80;97.40;;;;;;5034992;28;20496;-86
2021/05/18 14:04:28;;;;;;;9.40;8.60;;;20.10;95.60;;;;;;5034557;28;20454;-84
2021/05/18 14:07:13;;;;;;;10.50;9.70;;;20.30;95.90;;;;;;5034118;28;20778;-83
2021/05/18 14:09:57;;;;;;;9.63;9.03;;;20.50;97.50;;;;;;5030036;28;20496;-83
2021/05/18 14:12:26;;;;;;;9.47;8.87;;;20.90;93.70;;;;;;5016398;28;20474;-83
2021/05/18 14:14:54;;;;;;;9.47;8.80;;;20.60;92.80;;;;;;5016540;28;20851;-83
2021/05/18 14:17:25;;;;;;;9.77;9.03;;;20.30;91.60;;;;;;4980541;28;20817;-84
2021/05/18 14:19:53;;;;;;;8.47;7.87;;;20.10;97.70;;;;;;5034135;28;20443;-82
2021/05/18 14:22:24;;;;;;;9.70;8.93;;;20.40;99.90;;;;;;5026001;28;20450;-82
2021/05/18 14:25:10;;;;;;;10.80;10.00;;;20.90;93.60;;;;;;5034423;28;20454;-85
2021/05/18 14:27:37;;;;;;;10.80;9.90;;;20.90;92.90;;;;;;5033404;28;20470;-87
2021/05/18 14:30:13;;;;;;;10.10;9.50;;;20.60;95.50;;;;;;5034315;28;20870;-87
2021/05/18 14:32:42;;;;;;;10.97;10.20;;;20.40;94.60;;;;;;5016837;28;20471;-86
2021/05/18 14:35:17;;;;;;;10.70;10.00;;;19.80;92.30;;;;;;5033706;28;20433;-83
2021/05/18 14:37:55;;;;;;;10.90;10.27;;;19.50;94.20;;;;;;5014900;28;20443;-85
2021/05/18 14:45:19;;;;;;;10.70;10.00;;;19.30;99.20;;;;;;5016467;28;20434;-80
2021/05/18 14:55:42;;;;;;;11.60;10.80;;;23.90;74.50;;;;;;5015403;28;20431;-82
2021/05/18 14:58:11;;;;;;;10.10;9.40;;;24.30;65.40;;;;;;5033803;28;20431;-82
2021/05/18 15:00:38;;;;;;;11.13;10.53;;;24.70;78.50;;;;;;5033572;28;20471;-82
2021/05/18 15:03:12;;;;;;;10.67;9.97;;;25.10;76.50;;;;;;5016399;28;20514;-82
2021/05/18 15:05:40;;;;;;;10.73;10.07;;;25.10;65.40;;;;;;5033630;28;20469;-84
2021/05/18 15:08:07;;;;;;;10.00;9.40;;;25.40;68.60;;;;;;5032965;28;20443;-84
2021/05/18 15:10:35;;;;;;;10.63;10.03;;;25.70;69.80;;;;;;5016107;28;20458;-83
2021/05/18 15:13:04;;;;;;;10.70;10.00;;;25.30;58.30;;;;;;5033415;28;20561;-82
2021/05/18 15:15:32;;;;;;;10.20;9.60;;;24.60;58.60;;;;;;5033561;28;20443;-83
2021/05/18 15:17:59;;;;;;;9.80;9.00;;;23.10;61.30;;;;;;5033709;28;20450;-83
2021/05/18 15:20:26;;;;;;;10.23;9.67;;;22.20;67.30;;;;;;4999000;28;20464;-83
2021/05/18 15:22:52;;;;;;;10.10;9.40;;;21.40;81.20;;;;;;5029129;28;20444;-83
2021/05/18 15:25:21;;;;;;;8.93;8.50;;;20.80;80.90;;;;;;4999626;28;20446;-83
2021/05/18 15:27:50;;;;;;;9.33;8.63;;;20.40;81.10;;;;;;5033122;28;20468;-83
2021/05/18 15:30:16;;;;;;;9.07;8.47;;;19.80;85.40;;;;;;4998739;28;21090;-83
2021/05/18 15:32:47;;;;;;;9.47;8.97;;;19.30;90.30;;;;;;5032654;28;20481;-82
2021/05/18 15:35:15;;;;;;;9.03;8.43;;;18.80;92.70;;;;;;5015989;28;20575;-82
2021/05/18 15:37:44;;;;;;;9.30;8.60;;;18.40;94.20;;;;;;4998481;28;20449;-82
2021/05/18 15:40:15;;;;;;;9.20;8.60;;;18.10;94.40;;;;;;5033260;28;20425;-83
2021/05/18 15:42:42;;;;;;;8.33;7.50;;;17.80;98.60;;;;;;5014934;28;20483;-83
2021/05/18 15:45:11;;;;;;;8.30;7.70;;;17.60;99.90;;;;;;5012205;28;20821;-83
2021/05/18 15:47:41;;;;;;;8.80;8.00;;;17.40;99.90;;;;;;5032980;28;20522;-82
2021/05/18 15:50:14;;;;;;;7.90;7.20;;;17.30;99.40;;;;;;5032264;28;20444;-83
2021/05/18 15:52:40;;;;;;;7.53;7.03;;;17.40;99.10;;;;;;5015020;28;20468;-83
2021/05/18 15:55:09;;;;;;;8.17;7.67;;;18.20;99.10;;;;;;5015398;28;20438;-85
2021/05/18 15:57:36;;;;;;;8.10;7.60;;;20.10;99.40;;;;;;5010168;28;20421;-85
2021/05/18 16:00:03;;;;;;;8.97;8.37;;;21.80;85.50;;;;;;5030333;28;20504;-84
2021/05/18 16:02:42;;;;;;;7.87;7.47;;;23.20;75.30;;;;;;5032902;28;20520;-84
2021/05/18 16:05:08;;;;;;;7.83;7.43;;;24.10;77.30;;;;;;5032573;28;20435;-84
2021/05/18 16:07:36;;;;;;;8.20;7.80;;;24.40;62.60;;;;;;5032590;28;20437;-84
2021/05/18 16:10:07;;;;;;;7.83;7.33;;;24.60;62.70;;;;;;5014873;28;20895;-84
2021/05/18 16:12:35;;;;;;;8.07;7.67;;;24.20;61.70;;;;;;4998885;28;20498;-84
2021/05/18 16:15:02;;;;;;;10.03;9.40;;;23.40;66.30;;;;;;5015139;28;20888;-84
2021/05/18 16:17:28;;;;;;;11.30;10.60;;;23.20;67.20;;;;;;5032325;28;20930;-84
2021/05/18 16:19:54;;;;;;;10.50;9.70;;;23.60;65.30;;;;;;5033701;28;20513;-84
2021/05/18 16:22:24;;;;;;;10.20;9.50;;;24.70;65.50;;;;;;5036788;28;20474;-84
2021/05/18 16:24:52;;;;;;;9.83;9.03;;;25.20;58.20;;;;;;5036480;28;20941;-86
2021/05/18 16:27:21;;;;;;;9.50;8.70;;;25.20;59.00;;;;;;5035891;28;20507;-85
2021/05/18 16:29:50;;;;;;;8.33;7.80;;;25.80;57.60;;;;;;5013308;28;20968;-85
2021/05/18 16:32:16;;;;;;;8.93;8.23;;;25.70;56.50;;;;;;5036367;28;20510;-85
2021/05/18 16:34:45;;;;;;;9.03;8.43;;;24.80;57.80;;;;;;5035441;28;20427;-85
2021/05/18 16:37:13;;;;;;;9.30;8.80;;;24.00;59.10;;;;;;5036616;28;20496;-85
2021/05/18 16:39:41;;;;;;;9.17;8.67;;;22.90;67.10;;;;;;5036147;28;20455;-84
2021/05/18 16:42:10;;;;;;;8.73;8.23;;;22.10;68.00;;;;;;5036400;28;20446;-84
2021/05/18 16:44:41;;;;;;;9.33;8.63;;;21.50;75.90;;;;;;5012069;28;20527;-84
2021/05/18 16:47:18;;;;;;;9.37;8.73;;;21.00;81.90;;;;;;5035983;28;20427;-85
2021/05/18 16:49:46;;;;;;;8.83;8.33;;;20.50;83.10;;;;;;5035103;28;20894;-84
2021/05/18 16:52:15;;;;;;;8.77;8.07;;;20.30;78.30;;;;;;5035578;28;20473;-84
2021/05/18 16:54:41;;;;;;;10.43;9.07;;;20.30;84.30;;;;;;5030684;28;20431;-84
2021/05/18 16:57:07;;;;;;;8.40;7.60;;;20.20;87.10;;;;;;5018525;28;20463;-84
2021/05/18 16:59:35;;;;;;;7.20;6.80;;;19.90;85.40;;;;;;5034913;28;20427;-85
2021/05/18 17:02:01;;;;;;;9.70;9.00;;;19.60;92.90;;;;;;5035697;28;20530;-85
2021/05/18 17:04:27;;;;;;;7.77;7.27;;;19.30;91.10;;;;;;5035677;28;20436;-85
2021/05/18 17:06:54;;;;;;;7.40;6.87;;;19.00;92.70;;;;;;5017949;28;20445;-84
2021/05/18 17:09:20;;;;;;;7.97;7.27;;;18.70;92.30;;;;;;5034932;28;20453;-83
2021/05/18 17:11:49;;;;;;;12.60;11.60;;;18.40;95.00;;;;;;5037755;28;20440;-83
2021/05/18 17:14:18;;;;;;;9.47;8.60;;;18.10;94.90;;;;;;5034716;28;20936;-80
2021/05/18 17:16:47;;;;;;;8.60;7.90;;;17.80;99.90;;;;;;5035369;28;20446;-80
2021/05/18 17:19:15;;;;;;;12.73;9.13;;;17.20;99.90;;;;;;5033363;28;20443;-80
2021/05/18 17:21:43;;;;;;;11.00;9.50;;;16.80;99.90;;;;;;5035214;28;20448;-81
2021/05/18 17:24:10;;;;;;;12.00;10.90;;;16.50;99.90;;;;;;5035543;28;20753;-80
2021/05/18 17:26:38;;;;;;;12.27;11.07;;;16.20;99.90;;;;;;5017231;28;20524;-79
2021/05/18 17:29:07;;;;;;;12.60;11.50;;;15.90;99.90;;;;;;5035904;28;20435;-80
2021/05/18 17:31:36;;;;;;;13.13;11.13;;;15.70;99.90;;;;;;5033836;28;20431;-80
2021/05/18 17:34:04;;;;;;;12.67;11.57;;;15.60;99.90;;;;;;5017041;28;20955;-80
2021/05/18 17:36:32;;;;;;;12.03;10.93;;;15.30;99.90;;;;;;5016981;28;20767;-80
2021/05/18 17:38:58;;;;;;;13.33;12.03;;;15.10;99.90;;;;;;5034745;28;20443;-81
2021/05/18 17:41:24;;;;;;;13.87;12.57;;;14.80;99.90;;;;;;5033946;28;20784;-88
2021/05/18 17:43:56;;;;;;;14.90;10.40;;;14.60;99.90;;;;;;5017459;28;20449;-89
2021/05/18 17:46:30;;;;;;;17.27;14.07;;;14.40;99.90;;;;;;5035868;28;20477;-89
2021/05/18 17:49:00;;;;;;;17.37;15.33;;;14.20;99.90;;;;;;5033860;28;20429;-90
2021/05/18 17:51:28;;;;;;;20.77;15.57;;;14.20;99.90;;;;;;5034655;28;20469;-90
2021/05/18 17:53:59;;;;;;;12.83;11.43;;;14.30;99.90;;;;;;5018350;28;20476;-89
2021/05/18 17:56:27;;;;;;;16.53;13.10;;;14.40;99.90;;;;;;5035963;28;20490;-90
2021/05/18 17:58:59;;;;;;;15.00;13.30;;;14.50;99.90;;;;;;5035927;28;20502;-91